Terminal Aerodrome Forecast
Issued by NWS

Home | Current Version | Previous Version | Text Only | Print | Product List | Glossary On
Versions: 1 2 3 4 5 6 7 8 9 10 11 12 13 14 15 16 17
000
FTUS43 KJKL 171739
TAFSJS
TAF
KSJS 171739Z 1718/1818 VRB05KT 3SM RA BR BKN006 OVC025
     FM172200 VRB03KT 3SM -SHRA BR BKN008 OVC015
     FM180000 VRB03KT 6SM BR VCSH BKN008 OVC015
     FM180500 27006KT P6SM BKN010
     FM181300 VRB03KT P6SM SCT015=

USA.gov is the U.S. government's official web portal to all federal, state and local government web resources and services.